createdAt,value
2017-11-23T00:00:12.349Z,12.13
2017-11-23T00:01:12.343Z,12.13
2017-11-23T00:02:12.339Z,12.15
2017-11-23T00:03:12.334Z,12.08
2017-11-23T00:04:12.322Z,12.04
2017-11-23T00:05:12.316Z,12.12
2017-11-23T00:06:12.313Z,11.98
2017-11-23T00:07:12.306Z,12.04
2017-11-23T00:08:12.299Z,12.12
2017-11-23T00:09:12.293Z,12.12
2017-11-23T00:10:12.292Z,12.08
2017-11-23T00:11:12.283Z,12.08
2017-11-23T00:12:12.281Z,12.19
2017-11-23T00:13:12.274Z,12.22
2017-11-23T00:14:12.270Z,12.15
2017-11-23T00:15:12.264Z,12.13
2017-11-23T00:16:12.258Z,12.12
2017-11-23T00:17:12.252Z,12.08
2017-11-23T00:18:12.246Z,12.13
2017-11-23T00:19:12.240Z,12.13
2017-11-23T00:20:12.230Z,12.13
2017-11-23T00:21:12.225Z,12.16
2017-11-23T00:22:12.220Z,12.13
2017-11-23T00:23:12.215Z,12.00
2017-11-23T00:24:12.208Z,12.03
2017-11-23T00:25:12.202Z,12.08
2017-11-23T00:26:12.196Z,12.22
2017-11-23T00:27:12.190Z,12.22
2017-11-23T00:28:12.187Z,12.26
2017-11-23T00:29:12.189Z,12.08
2017-11-23T00:30:12.177Z,12.11
2017-11-23T00:31:12.172Z,12.15
2017-11-23T00:32:12.173Z,12.12
2017-11-23T00:33:12.160Z,11.97
2017-11-23T00:34:12.153Z,12.11
2017-11-23T00:35:12.149Z,12.07
2017-11-23T00:36:12.136Z,12.12
2017-11-23T00:37:12.133Z,12.11
2017-11-23T00:38:12.125Z,12.08
2017-11-23T00:39:12.121Z,12.00
2017-11-23T00:40:12.122Z,12.11
2017-11-23T00:41:12.113Z,12.11
2017-11-23T00:42:12.107Z,12.11
2017-11-23T00:43:12.102Z,12.04
2017-11-23T00:44:12.092Z,12.05
2017-11-23T00:45:12.086Z,12.05
2017-11-23T00:46:12.081Z,12.01
2017-11-23T00:47:12.074Z,12.03
2017-11-23T00:48:12.069Z,12.11
2017-11-23T00:49:12.062Z,12.03
2017-11-23T00:50:12.059Z,12.01
2017-11-23T00:51:12.051Z,12.05
2017-11-23T00:52:12.049Z,12.05
2017-11-23T00:53:12.044Z,12.04
2017-11-23T00:54:12.037Z,11.97
2017-11-23T00:55:12.033Z,11.96
2017-11-23T00:56:12.027Z,11.93
2017-11-23T00:57:12.021Z,11.93
2017-11-23T00:58:12.014Z,11.94
2017-11-23T00:59:12.010Z,11.98
2017-11-23T01:00:11.999Z,11.96
2017-11-23T01:01:11.993Z,11.94
2017-11-23T01:02:11.988Z,11.93
2017-11-23T01:03:11.982Z,11.90
2017-11-23T01:04:11.975Z,11.94
2017-11-23T01:05:11.971Z,11.90
2017-11-23T01:06:11.963Z,11.87
2017-11-23T01:07:11.960Z,11.87
2017-11-23T01:08:11.956Z,12.03
2017-11-23T01:09:11.950Z,11.94
2017-11-23T01:10:11.946Z,11.94
2017-11-23T01:11:11.939Z,11.90
2017-11-23T01:12:11.933Z,11.88
2017-11-23T01:13:11.928Z,11.93
2017-11-23T01:14:11.922Z,11.90
2017-11-23T01:15:11.917Z,11.81
2017-11-23T01:16:11.907Z,11.88
2017-11-23T01:17:11.901Z,11.97
2017-11-23T01:18:11.896Z,11.87
2017-11-23T01:19:11.889Z,11.96
2017-11-23T01:20:11.883Z,11.93
2017-11-23T01:21:11.877Z,11.94
2017-11-23T01:22:11.871Z,11.90
2017-11-23T01:23:11.865Z,11.96
2017-11-23T01:24:11.865Z,11.96
2017-11-23T01:25:11.857Z,11.90
2017-11-23T01:26:11.852Z,11.94
2017-11-23T01:27:11.846Z,11.97
2017-11-23T01:28:11.840Z,11.96
2017-11-23T01:29:11.835Z,11.97
2017-11-23T01:30:11.829Z,11.90
2017-11-23T01:31:11.823Z,11.87
2017-11-23T01:32:11.814Z,11.90
2017-11-23T01:33:11.807Z,11.93
2017-11-23T01:34:11.801Z,11.94
2017-11-23T01:35:11.799Z,11.84
2017-11-23T01:36:11.790Z,11.90
2017-11-23T01:37:11.784Z,12.01
2017-11-23T01:38:11.779Z,11.98
2017-11-23T01:39:11.772Z,11.94
2017-11-23T01:40:11.769Z,11.97
2017-11-23T01:41:11.765Z,11.94
2017-11-23T01:42:11.758Z,11.90
2017-11-23T01:43:11.754Z,11.88
2017-11-23T01:44:11.749Z,11.90
2017-11-23T01:45:11.741Z,11.96
2017-11-23T01:46:11.740Z,12.00
2017-11-23T01:47:11.739Z,12.00
2017-11-23T01:48:11.718Z,11.96
2017-11-23T01:49:11.714Z,11.93
2017-11-23T01:50:11.707Z,11.96
2017-11-23T01:51:11.702Z,11.94
2017-11-23T01:52:11.696Z,11.97
2017-11-23T01:53:11.689Z,11.94
2017-11-23T01:54:11.686Z,11.97
2017-11-23T01:55:11.678Z,11.90
2017-11-23T01:56:11.675Z,12.04
2017-11-23T01:57:11.670Z,11.98
2017-11-23T01:58:11.665Z,11.98
2017-11-23T01:59:11.660Z,12.04
2017-11-23T02:00:11.654Z,11.96
2017-11-23T02:01:11.647Z,11.96
2017-11-23T02:02:11.641Z,11.94
2017-11-23T02:03:11.636Z,11.93
2017-11-23T02:04:11.625Z,11.93
2017-11-23T02:05:11.618Z,11.96
2017-11-23T02:06:11.617Z,11.97
2017-11-23T02:07:11.608Z,11.97
2017-11-23T02:08:11.602Z,11.94
2017-11-23T02:09:11.595Z,11.98
2017-11-23T02:10:11.589Z,11.94
2017-11-23T02:11:11.585Z,11.96
2017-11-23T02:12:11.583Z,11.93
2017-11-23T02:13:11.576Z,11.97
2017-11-23T02:14:11.571Z,11.98
2017-11-23T02:15:11.565Z,11.98
2017-11-23T02:16:11.559Z,11.97
2017-11-23T02:17:11.554Z,11.96
2017-11-23T02:18:11.548Z,12.08
2017-11-23T02:19:11.543Z,12.07
2017-11-23T02:20:11.532Z,11.96
2017-11-23T02:21:11.525Z,11.93
2017-11-23T02:22:11.519Z,12.03
2017-11-23T02:23:11.515Z,12.00
2017-11-23T02:24:11.508Z,12.00
2017-11-23T02:25:11.504Z,12.05
2017-11-23T02:26:11.496Z,12.08
2017-11-23T02:27:11.490Z,11.94
2017-11-23T02:28:11.489Z,11.96
2017-11-23T02:29:11.484Z,11.98
2017-11-23T02:30:11.478Z,12.01
2017-11-23T02:31:11.505Z,11.98
2017-11-23T02:32:11.467Z,11.93
2017-11-23T02:33:11.460Z,12.00
2017-11-23T02:34:11.455Z,12.05
2017-11-23T02:35:11.450Z,11.96
2017-11-23T02:36:11.438Z,12.00
2017-11-23T02:37:11.433Z,11.88
2017-11-23T02:38:11.427Z,12.01
2017-11-23T02:39:11.423Z,11.98
2017-11-23T02:40:11.415Z,11.94
2017-11-23T02:41:11.411Z,12.05
2017-11-23T02:42:11.427Z,12.03
2017-11-23T02:43:11.399Z,12.05
2017-11-23T02:44:11.395Z,12.08
2017-11-23T02:45:11.393Z,12.03
2017-11-23T02:46:11.385Z,12.01
2017-11-23T02:47:11.384Z,12.11
2017-11-23T02:48:11.370Z,12.01
2017-11-23T02:49:11.365Z,12.07
2017-11-23T02:50:11.357Z,12.04
2017-11-23T02:51:11.351Z,12.05
2017-11-23T02:52:11.348Z,11.87
2017-11-23T02:53:11.344Z,12.01
2017-11-23T02:54:11.340Z,12.04
2017-11-23T02:55:11.335Z,12.01
2017-11-23T02:56:11.332Z,12.05
2017-11-23T02:57:11.329Z,11.98
2017-11-23T02:58:11.315Z,12.01
2017-11-23T02:59:11.311Z,11.88
2017-11-23T03:00:11.307Z,11.90
2017-11-23T03:01:11.294Z,11.94
2017-11-23T03:02:11.291Z,12.01
2017-11-23T03:03:11.283Z,12.05
2017-11-23T03:04:11.276Z,12.11
2017-11-23T03:05:11.270Z,12.07
2017-11-23T03:06:11.265Z,12.08
2017-11-23T03:07:11.260Z,12.05
2017-11-23T03:08:11.257Z,12.08
2017-11-23T03:09:11.251Z,12.00
2017-11-23T03:10:11.248Z,12.00
2017-11-23T03:11:11.240Z,11.93
2017-11-23T03:12:11.235Z,12.04
2017-11-23T03:13:11.228Z,12.03
2017-11-23T03:14:11.222Z,11.90
2017-11-23T03:15:11.227Z,12.00
2017-11-23T03:16:11.205Z,11.97
2017-11-23T03:17:11.200Z,11.90
2017-11-23T03:18:11.195Z,12.01
2017-11-23T03:19:11.189Z,12.01
2017-11-23T03:20:11.182Z,12.08
2017-11-23T03:21:11.178Z,12.11
2017-11-23T03:22:11.172Z,12.07
2017-11-23T03:23:11.168Z,12.11
2017-11-23T03:24:11.163Z,12.12
2017-11-23T03:25:11.158Z,12.07
2017-11-23T03:26:11.153Z,12.07
2017-11-23T03:27:11.149Z,12.04
2017-11-23T03:28:11.140Z,12.03
2017-11-23T03:29:11.136Z,12.05
2017-11-23T03:30:11.131Z,11.98
2017-11-23T03:31:11.127Z,12.08
2017-11-23T03:32:11.114Z,12.12
2017-11-23T03:33:11.107Z,12.16
2017-11-23T03:34:11.101Z,12.07
2017-11-23T03:35:11.098Z,12.13
2017-11-23T03:36:11.091Z,12.23
2017-11-23T03:37:11.084Z,12.16
2017-11-23T03:38:11.081Z,12.13
2017-11-23T03:39:11.074Z,12.11
2017-11-23T03:40:11.073Z,12.08
2017-11-23T03:41:11.066Z,12.13
2017-11-23T03:42:11.060Z,12.08
2017-11-23T03:43:11.056Z,12.11
2017-11-23T03:44:11.048Z,12.18
2017-11-23T03:45:11.044Z,12.16
2017-11-23T03:46:11.037Z,12.15
2017-11-23T03:47:11.032Z,12.05
2017-11-23T03:48:11.023Z,12.13
2017-11-23T03:49:11.017Z,12.04
2017-11-23T03:50:11.009Z,12.04
2017-11-23T03:51:11.005Z,12.29
2017-11-23T03:52:11.001Z,12.16
2017-11-23T03:53:10.997Z,12.13
2017-11-23T03:54:10.990Z,12.12
2017-11-23T03:55:10.986Z,12.11
2017-11-23T03:56:10.983Z,12.11
2017-11-23T03:57:10.968Z,12.08
2017-11-23T03:58:10.964Z,12.04
2017-11-23T03:59:10.958Z,12.12
2017-11-23T04:00:10.952Z,11.98
2017-11-23T04:01:10.948Z,12.11
2017-11-23T04:02:10.940Z,12.12
2017-11-23T04:03:10.936Z,12.07
2017-11-23T04:04:10.936Z,12.11
2017-11-23T04:05:10.928Z,12.12
2017-11-23T04:06:10.923Z,12.08
2017-11-23T04:07:10.917Z,12.16
2017-11-23T04:08:10.911Z,12.00
2017-11-23T04:09:10.905Z,12.12
2017-11-23T04:10:10.900Z,12.00
2017-11-23T04:11:10.894Z,12.00
2017-11-23T04:12:10.883Z,12.00
2017-11-23T04:13:10.884Z,12.15
2017-11-23T04:14:10.873Z,12.11
2017-11-23T04:15:10.868Z,12.11
2017-11-23T04:16:10.861Z,12.12
2017-11-23T04:17:10.855Z,12.15
2017-11-23T04:18:10.858Z,12.15
2017-11-23T04:19:10.849Z,12.12
2017-11-23T04:20:10.843Z,12.12
2017-11-23T04:21:10.837Z,12.13
2017-11-23T04:22:10.833Z,12.08
2017-11-23T04:23:10.826Z,12.18
2017-11-23T04:24:10.823Z,12.12
2017-11-23T04:25:10.813Z,12.18
2017-11-23T04:26:10.809Z,12.11
2017-11-23T04:27:10.803Z,12.22
2017-11-23T04:28:10.791Z,12.21
2017-11-23T04:29:10.789Z,12.19
2017-11-23T04:30:10.781Z,12.23
2017-11-23T04:31:10.779Z,12.22
2017-11-23T04:32:10.772Z,12.23
2017-11-23T04:33:10.766Z,12.34
2017-11-23T04:34:10.759Z,12.30
2017-11-23T04:35:10.754Z,12.40
2017-11-23T04:36:10.750Z,12.41
2017-11-23T04:37:10.747Z,12.38
2017-11-23T04:38:10.747Z,12.43
2017-11-23T04:39:10.736Z,12.37
2017-11-23T04:40:10.730Z,12.44
2017-11-23T04:41:10.724Z,12.36
2017-11-23T04:42:10.719Z,12.38
2017-11-23T04:43:10.714Z,12.46
2017-11-23T04:44:10.704Z,12.43
2017-11-23T04:45:10.699Z,12.40
2017-11-23T04:46:10.691Z,12.44
2017-11-23T04:47:10.687Z,12.40
2017-11-23T04:48:10.683Z,12.48
2017-11-23T04:49:10.676Z,12.38
2017-11-23T04:50:10.669Z,12.38
2017-11-23T04:51:10.664Z,12.43
2017-11-23T04:52:10.663Z,12.46
2017-11-23T04:53:10.658Z,12.44
2017-11-23T04:54:10.652Z,12.49
2017-11-23T04:55:10.646Z,12.44
2017-11-23T04:56:10.636Z,12.46
2017-11-23T04:57:10.632Z,12.55
2017-11-23T04:58:10.625Z,12.51
2017-11-23T04:59:10.621Z,12.41
2017-11-23T05:00:10.621Z,12.55
2017-11-23T05:01:10.614Z,12.52
2017-11-23T05:02:10.609Z,12.48
2017-11-23T05:03:10.603Z,12.51
2017-11-23T05:04:10.596Z,12.51
2017-11-23T05:05:10.599Z,12.55
2017-11-23T05:06:10.587Z,12.52
2017-11-23T05:07:10.583Z,12.51
2017-11-23T05:08:10.570Z,12.61
2017-11-23T05:09:10.566Z,12.52
2017-11-23T05:10:10.561Z,12.61
2017-11-23T05:11:10.556Z,12.56
2017-11-23T05:12:10.549Z,12.62
2017-11-23T05:13:10.545Z,12.59
2017-11-23T05:14:10.537Z,12.55
2017-11-23T05:15:10.534Z,12.61
2017-11-23T05:16:10.536Z,12.59
2017-11-23T05:17:10.530Z,12.54
2017-11-23T05:18:10.521Z,12.54
2017-11-23T05:19:10.517Z,12.56
2017-11-23T05:20:10.510Z,12.54
2017-11-23T05:21:10.506Z,12.56
2017-11-23T05:22:10.501Z,12.54
2017-11-23T05:23:10.496Z,12.62
2017-11-23T05:24:10.484Z,12.63
2017-11-23T05:25:10.481Z,12.69
2017-11-23T05:26:10.476Z,12.69
2017-11-23T05:27:10.472Z,12.69
2017-11-23T05:28:10.478Z,12.73
2017-11-23T05:29:10.458Z,12.67
2017-11-23T05:30:10.455Z,12.69
2017-11-23T05:31:10.450Z,12.70
2017-11-23T05:32:10.447Z,12.69
2017-11-23T05:33:10.443Z,12.69
2017-11-23T05:34:10.437Z,12.73
2017-11-23T05:35:10.434Z,12.69
2017-11-23T05:36:10.427Z,12.62
2017-11-23T05:37:10.420Z,12.71
2017-11-23T05:38:10.416Z,12.71
2017-11-23T05:39:10.410Z,12.73
2017-11-23T05:40:10.400Z,12.67
2017-11-23T05:41:10.396Z,12.61
2017-11-23T05:42:10.391Z,12.80
2017-11-23T05:43:10.388Z,12.81
2017-11-23T05:44:10.379Z,12.77
2017-11-23T05:45:10.375Z,12.70
2017-11-23T05:46:10.370Z,12.67
2017-11-23T05:47:10.365Z,12.63
2017-11-23T05:48:10.363Z,12.76
2017-11-23T05:49:10.357Z,12.77
2017-11-23T05:50:10.353Z,12.71
2017-11-23T05:51:10.349Z,12.70
2017-11-23T05:52:10.341Z,12.80
2017-11-23T05:53:10.336Z,12.70
2017-11-23T05:54:10.332Z,12.66
2017-11-23T05:55:10.326Z,12.74
2017-11-23T05:56:10.318Z,12.71
2017-11-23T05:57:10.311Z,12.67
2017-11-23T05:58:10.306Z,12.71
2017-11-23T05:59:10.301Z,12.71
2017-11-23T06:00:10.299Z,12.67
2017-11-23T06:01:10.294Z,12.67
2017-11-23T06:02:10.288Z,12.76
2017-11-23T06:03:10.284Z,12.76
2017-11-23T06:04:10.272Z,12.71
2017-11-23T06:05:10.268Z,12.80
2017-11-23T06:06:10.268Z,12.81
2017-11-23T06:07:10.257Z,12.76
2017-11-23T06:08:10.252Z,12.77
2017-11-23T06:09:10.263Z,12.87
2017-11-23T06:10:10.241Z,12.87
2017-11-23T06:11:10.238Z,12.84
2017-11-23T06:12:10.240Z,12.89
2017-11-23T06:13:10.231Z,12.91
2017-11-23T06:14:10.237Z,12.95
2017-11-23T06:15:10.224Z,12.89
2017-11-23T06:16:10.214Z,12.95
2017-11-23T06:17:10.211Z,12.96
2017-11-23T06:18:10.204Z,12.99
2017-11-23T06:19:10.199Z,12.95
2017-11-23T06:20:10.189Z,12.96
2017-11-23T06:21:10.185Z,13.01
2017-11-23T06:22:10.180Z,13.03
2017-11-23T06:23:10.175Z,13.03
2017-11-23T06:24:10.170Z,13.07
2017-11-23T06:25:10.163Z,13.06
2017-11-23T06:26:10.159Z,13.07
2017-11-23T06:27:10.155Z,13.03
2017-11-23T06:28:10.152Z,13.13
2017-11-23T06:29:10.148Z,13.14
2017-11-23T06:30:10.146Z,13.13
2017-11-23T06:31:10.140Z,13.17
2017-11-23T06:32:10.133Z,13.13
2017-11-23T06:33:10.128Z,13.21
2017-11-23T06:34:10.130Z,13.04
2017-11-23T06:35:10.118Z,13.19
2017-11-23T06:36:10.108Z,13.10
2017-11-23T06:37:10.103Z,13.14
2017-11-23T06:38:10.098Z,13.25
2017-11-23T06:39:10.095Z,13.14
2017-11-23T06:40:10.087Z,13.17
2017-11-23T06:41:10.086Z,13.24
2017-11-23T06:42:10.081Z,13.24
2017-11-23T06:43:10.074Z,13.25
2017-11-23T06:44:10.072Z,13.24
2017-11-23T06:45:10.075Z,13.14
2017-11-23T06:46:10.062Z,13.17
2017-11-23T06:47:10.059Z,13.21
2017-11-23T06:48:10.057Z,13.21
2017-11-23T06:49:10.049Z,13.21
2017-11-23T06:50:10.043Z,13.19
2017-11-23T06:51:10.039Z,13.17
2017-11-23T06:52:10.036Z,13.19
2017-11-23T06:53:10.024Z,13.27
2017-11-23T06:54:10.021Z,13.24
2017-11-23T06:55:10.015Z,13.29
2017-11-23T06:56:10.011Z,13.17
2017-11-23T06:57:10.012Z,13.27
2017-11-23T06:58:10.000Z,13.16
2017-11-23T06:59:09.996Z,13.21
2017-11-23T07:00:09.994Z,13.22
2017-11-23T07:01:09.989Z,13.22
2017-11-23T07:02:09.984Z,13.27
2017-11-23T07:03:09.980Z,13.27
2017-11-23T07:04:09.971Z,13.31
2017-11-23T07:05:09.966Z,13.16
2017-11-23T07:06:09.961Z,13.29
2017-11-23T07:07:09.955Z,13.29
2017-11-23T07:08:09.955Z,13.16
2017-11-23T07:09:09.949Z,13.22
2017-11-23T07:10:09.945Z,13.29
2017-11-23T07:11:09.942Z,13.27
2017-11-23T07:12:09.936Z,13.25
2017-11-23T07:13:09.931Z,13.24
2017-11-23T07:14:09.926Z,13.29
2017-11-23T07:15:09.921Z,13.24
2017-11-23T07:16:09.912Z,13.29
2017-11-23T07:17:09.907Z,13.27
2017-11-23T07:18:09.903Z,13.24
2017-11-23T07:19:09.897Z,13.25
2017-11-23T07:20:09.892Z,13.24
2017-11-23T07:21:09.887Z,13.24
2017-11-23T07:22:09.883Z,13.27
2017-11-23T07:23:09.883Z,13.29
2017-11-23T07:24:09.877Z,13.22
2017-11-23T07:25:09.873Z,13.25
2017-11-23T07:26:09.867Z,13.25
2017-11-23T07:27:09.865Z,13.32
2017-11-23T07:28:09.857Z,13.29
2017-11-23T07:29:09.853Z,13.27
2017-11-23T07:30:09.852Z,13.29
2017-11-23T07:31:09.844Z,13.29
2017-11-23T07:32:09.834Z,13.31
2017-11-23T07:33:09.837Z,13.27
2017-11-23T07:34:09.826Z,13.25
2017-11-23T07:35:09.821Z,13.29
2017-11-23T07:36:09.823Z,13.28
2017-11-23T07:37:09.811Z,13.27
2017-11-23T07:38:09.807Z,13.24
2017-11-23T07:39:09.801Z,13.17
2017-11-23T07:40:09.802Z,13.31
2017-11-23T07:41:09.795Z,13.25
2017-11-23T07:42:09.792Z,13.27
2017-11-23T07:43:09.788Z,13.29
2017-11-23T07:44:09.784Z,13.25
2017-11-23T07:45:09.777Z,13.27
2017-11-23T07:46:09.772Z,13.25
2017-11-23T07:47:09.768Z,13.35
2017-11-23T07:48:09.758Z,13.28
2017-11-23T07:49:09.753Z,13.25
2017-11-23T07:50:09.748Z,13.32
2017-11-23T07:51:09.745Z,13.31
2017-11-23T07:52:09.739Z,13.25
2017-11-23T07:53:09.735Z,13.32
2017-11-23T07:54:09.730Z,13.28
2017-11-23T07:55:09.726Z,13.13
2017-11-23T07:56:09.724Z,13.27
2017-11-23T07:57:09.719Z,13.10
2017-11-23T07:58:09.716Z,13.17
2017-11-23T07:59:09.712Z,13.16
2017-11-23T08:00:09.705Z,13.22
2017-11-23T08:01:09.702Z,13.25
2017-11-23T08:02:09.695Z,13.32
2017-11-23T08:03:09.691Z,13.32
2017-11-23T08:04:09.682Z,13.28
2017-11-23T08:05:09.678Z,13.21
2017-11-23T08:06:09.672Z,13.25
2017-11-23T08:07:09.669Z,13.29
2017-11-23T08:08:09.669Z,13.21
2017-11-23T08:09:09.664Z,13.32
2017-11-23T08:10:09.658Z,13.22
2017-11-23T08:11:09.653Z,13.31
2017-11-23T08:12:09.645Z,13.31
2017-11-23T08:13:09.640Z,13.25
2017-11-23T08:14:09.635Z,13.43
2017-11-23T08:15:09.632Z,13.44
2017-11-23T08:16:09.625Z,13.47
2017-11-23T08:17:09.620Z,13.84
2017-11-23T08:18:09.617Z,13.63
2017-11-23T08:19:09.612Z,13.69
2017-11-23T08:20:09.610Z,14.01
2017-11-23T08:21:09.606Z,14.04
2017-11-23T08:22:09.606Z,14.35
2017-11-23T08:23:09.599Z,14.46
2017-11-23T08:24:09.594Z,14.27
2017-11-23T08:25:09.590Z,14.09
2017-11-23T08:26:09.586Z,13.96
2017-11-23T08:27:09.583Z,13.99
2017-11-23T08:28:09.574Z,13.93
2017-11-23T08:29:09.570Z,14.01
2017-11-23T08:30:09.569Z,13.99
2017-11-23T08:31:09.563Z,13.84
2017-11-23T08:32:09.560Z,13.76
2017-11-23T08:33:09.556Z,13.72
2017-11-23T08:34:09.552Z,13.80
2017-11-23T08:35:09.551Z,13.71
2017-11-23T08:36:09.549Z,13.69
2017-11-23T08:37:09.547Z,13.76
2017-11-23T08:38:09.542Z,13.76
2017-11-23T08:39:09.539Z,13.75
2017-11-23T08:40:09.535Z,13.71
2017-11-23T08:41:09.531Z,13.69
2017-11-23T08:42:09.529Z,13.69
2017-11-23T08:43:09.530Z,13.69
2017-11-23T08:44:09.517Z,13.62
2017-11-23T08:45:09.514Z,13.63
2017-11-23T08:46:09.514Z,13.65
2017-11-23T08:47:09.501Z,13.62
2017-11-23T08:48:09.496Z,13.63
2017-11-23T08:49:09.494Z,13.65
2017-11-23T08:50:09.488Z,13.63
2017-11-23T08:51:09.484Z,13.63
2017-11-23T08:52:09.479Z,13.61
2017-11-23T08:53:09.477Z,13.62
2017-11-23T08:54:09.474Z,13.59
2017-11-23T08:55:09.468Z,13.72
2017-11-23T08:56:09.489Z,13.72
2017-11-23T08:57:09.459Z,13.76
2017-11-23T08:58:09.457Z,13.80
2017-11-23T08:59:09.454Z,13.75
2017-11-23T09:00:09.445Z,13.80
2017-11-23T09:01:09.444Z,13.87
2017-11-23T09:02:09.439Z,13.90
2017-11-23T09:03:09.437Z,13.80
2017-11-23T09:04:09.430Z,13.86
2017-11-23T09:05:09.427Z,13.88
2017-11-23T09:06:09.423Z,13.88
2017-11-23T09:07:09.419Z,13.88
2017-11-23T09:08:09.414Z,13.88
2017-11-23T09:09:09.416Z,13.86
2017-11-23T09:10:09.408Z,13.86
2017-11-23T09:11:09.410Z,13.96
2017-11-23T09:12:09.397Z,13.99
2017-11-23T09:13:09.394Z,14.06
2017-11-23T09:14:09.388Z,13.98
2017-11-23T09:15:09.387Z,14.01
2017-11-23T09:16:09.385Z,13.99
2017-11-23T09:17:09.379Z,14.06
2017-11-23T09:18:09.383Z,14.06
2017-11-23T09:19:09.385Z,14.11
2017-11-23T09:20:09.375Z,14.11
2017-11-23T09:21:09.370Z,14.11
2017-11-23T09:22:09.368Z,14.16
2017-11-23T09:23:09.362Z,14.23
2017-11-23T09:24:09.354Z,14.34
2017-11-23T09:25:09.350Z,14.45
2017-11-23T09:26:09.348Z,14.53
2017-11-23T09:27:09.342Z,14.42
2017-11-23T09:28:09.347Z,14.52
2017-11-23T09:29:09.337Z,14.57
2017-11-23T09:30:09.332Z,14.59
2017-11-23T09:31:09.328Z,14.67
2017-11-23T09:32:09.328Z,14.61
2017-11-23T09:33:09.324Z,14.67
2017-11-23T09:34:09.319Z,14.74
2017-11-23T09:35:09.317Z,14.75
2017-11-23T09:36:09.313Z,14.79
2017-11-23T09:37:09.309Z,14.80
2017-11-23T09:38:09.306Z,14.78
2017-11-23T09:39:09.300Z,14.90
2017-11-23T09:40:09.293Z,14.97
2017-11-23T09:41:09.292Z,14.98
2017-11-23T09:42:09.287Z,15.13
2017-11-23T09:43:09.283Z,15.15
2017-11-23T09:44:09.296Z,15.16
2017-11-23T09:45:09.277Z,15.13
2017-11-23T09:46:09.272Z,15.33
2017-11-23T09:47:09.270Z,15.33
2017-11-23T09:48:09.270Z,15.40
2017-11-23T09:49:09.265Z,15.43
2017-11-23T09:50:09.263Z,15.55
2017-11-23T09:51:09.259Z,15.60
2017-11-23T09:52:09.256Z,15.73
2017-11-23T09:53:09.253Z,15.64
2017-11-23T09:54:09.250Z,15.67
2017-11-23T09:55:09.248Z,15.73
2017-11-23T09:56:09.239Z,15.76
2017-11-23T09:57:09.236Z,15.81
2017-11-23T09:58:09.232Z,15.89
2017-11-23T09:59:09.229Z,15.81
2017-11-23T10:00:09.225Z,15.85
2017-11-23T10:01:09.224Z,15.81
2017-11-23T10:02:09.221Z,15.86
2017-11-23T10:03:09.220Z,15.98
2017-11-23T10:04:09.217Z,16.01
2017-11-23T10:05:09.215Z,16.03
2017-11-23T10:06:09.214Z,15.93
2017-11-23T10:07:09.212Z,15.86
2017-11-23T10:08:09.211Z,15.98
2017-11-23T10:09:09.204Z,16.01
2017-11-23T10:10:09.208Z,15.93
2017-11-23T10:11:09.200Z,15.93
2017-11-23T10:12:09.190Z,15.86
2017-11-23T10:13:09.190Z,15.84
2017-11-23T10:14:09.186Z,15.88
2017-11-23T10:15:09.193Z,15.93
2017-11-23T10:16:09.185Z,15.84
2017-11-23T10:17:09.179Z,15.88
2017-11-23T10:18:09.175Z,15.96
2017-11-23T10:19:09.172Z,15.98
2017-11-23T10:20:09.181Z,15.92
2017-11-23T10:21:09.179Z,15.95
2017-11-23T10:22:09.169Z,16.01
2017-11-23T10:23:09.167Z,15.98
2017-11-23T10:24:09.164Z,15.93
2017-11-23T10:25:09.161Z,15.96
2017-11-23T10:26:09.159Z,15.96
2017-11-23T10:27:09.155Z,15.98
2017-11-23T10:28:09.148Z,15.96
2017-11-23T10:29:09.147Z,15.92
2017-11-23T10:30:09.144Z,16.01
2017-11-23T10:31:09.142Z,15.92
2017-11-23T10:32:09.137Z,15.96
2017-11-23T10:33:09.135Z,15.98
2017-11-23T10:34:09.132Z,15.96
2017-11-23T10:35:09.131Z,15.93
2017-11-23T10:36:09.130Z,15.95
2017-11-23T10:37:09.128Z,15.92
2017-11-23T10:38:09.125Z,15.96
2017-11-23T10:39:09.124Z,15.96
2017-11-23T10:40:09.119Z,16.10
2017-11-23T10:41:09.118Z,16.03
2017-11-23T10:42:09.117Z,16.04
2017-11-23T10:43:09.117Z,16.07
2017-11-23T10:44:09.109Z,16.06
2017-11-23T10:45:09.104Z,16.11
2017-11-23T10:46:09.103Z,16.08
2017-11-23T10:47:09.100Z,16.07
2017-11-23T10:48:09.095Z,16.04
2017-11-23T10:49:09.093Z,16.07
2017-11-23T10:50:09.092Z,16.06
2017-11-23T10:51:09.090Z,16.08
2017-11-23T10:52:09.089Z,16.16
2017-11-23T10:53:09.091Z,16.16
2017-11-23T10:54:09.087Z,16.16
2017-11-23T10:55:09.084Z,16.22
2017-11-23T10:56:09.081Z,16.16
2017-11-23T10:57:09.078Z,16.16
2017-11-23T10:58:09.074Z,16.17
2017-11-23T10:59:09.072Z,16.27
2017-11-23T11:00:09.065Z,16.40
2017-11-23T11:01:09.062Z,16.33
2017-11-23T11:02:09.061Z,16.30
2017-11-23T11:03:09.058Z,16.23
2017-11-23T11:04:09.055Z,16.30
2017-11-23T11:05:09.053Z,16.33
2017-11-23T11:06:09.051Z,16.34
2017-11-23T11:07:09.048Z,16.27
2017-11-23T11:08:09.050Z,16.40
2017-11-23T11:09:09.053Z,16.30
2017-11-23T11:10:09.053Z,16.37
2017-11-23T11:11:09.046Z,16.32
2017-11-23T11:12:09.040Z,16.33
2017-11-23T11:13:09.037Z,16.23
2017-11-23T11:14:09.036Z,16.40
2017-11-23T11:15:09.033Z,16.34
2017-11-23T11:16:09.027Z,16.33
2017-11-23T11:17:09.026Z,16.41
2017-11-23T11:18:09.022Z,16.36
2017-11-23T11:19:09.019Z,16.45
2017-11-23T11:20:09.022Z,16.54
2017-11-23T11:21:09.020Z,16.47
2017-11-23T11:22:09.017Z,16.57
2017-11-23T11:23:09.016Z,16.63
2017-11-23T11:24:09.008Z,16.62
2017-11-23T11:25:09.007Z,16.57
2017-11-23T11:26:09.006Z,16.70
2017-11-23T11:27:09.004Z,16.63
2017-11-23T11:28:09.002Z,16.60
2017-11-23T11:29:09.007Z,16.50
2017-11-23T11:30:08.998Z,16.45
2017-11-23T11:31:08.996Z,16.48
2017-11-23T11:32:08.996Z,16.36
2017-11-23T11:33:08.996Z,16.34
2017-11-23T11:34:08.993Z,16.34
2017-11-23T11:35:08.994Z,16.33
2017-11-23T11:36:08.991Z,16.29
2017-11-23T11:37:08.987Z,16.26
2017-11-23T11:38:08.987Z,16.40
2017-11-23T11:39:08.985Z,16.36
2017-11-23T11:40:08.979Z,16.37
2017-11-23T11:41:08.976Z,16.47
2017-11-23T11:42:08.975Z,16.40
2017-11-23T11:43:08.973Z,16.36
2017-11-23T11:44:08.974Z,16.42
2017-11-23T11:45:08.969Z,16.42
2017-11-23T11:46:08.967Z,16.48
2017-11-23T11:47:08.968Z,16.42
2017-11-23T11:48:08.971Z,16.51
2017-11-23T11:49:08.976Z,16.50
2017-11-23T11:50:08.965Z,16.42
2017-11-23T11:51:08.962Z,16.47
2017-11-23T11:52:08.960Z,16.52
2017-11-23T11:53:08.958Z,16.45
2017-11-23T11:54:08.957Z,16.41
2017-11-23T11:55:08.957Z,16.32
2017-11-23T11:56:08.949Z,16.40
2017-11-23T11:57:08.946Z,16.32
2017-11-23T11:58:08.945Z,16.36
2017-11-23T11:59:08.944Z,16.34
2017-11-23T12:00:08.940Z,16.30
2017-11-23T12:01:08.940Z,16.32
2017-11-23T12:02:08.938Z,16.34
2017-11-23T12:03:08.939Z,16.30
2017-11-23T12:04:08.943Z,16.27
2017-11-23T12:05:08.937Z,16.17
2017-11-23T12:06:08.934Z,16.17
2017-11-23T12:07:08.936Z,16.17
2017-11-23T12:08:08.933Z,16.16
2017-11-23T12:09:08.933Z,16.11
2017-11-23T12:10:08.928Z,16.18
2017-11-23T12:11:08.924Z,16.23
2017-11-23T12:12:08.916Z,16.08
2017-11-23T12:13:08.921Z,16.04
2017-11-23T12:14:08.913Z,16.04
2017-11-23T12:15:08.912Z,15.99
2017-11-23T12:16:08.909Z,16.03
2017-11-23T12:17:08.907Z,15.98
2017-11-23T12:18:08.905Z,16.03
2017-11-23T12:19:08.903Z,16.01
2017-11-23T12:20:08.909Z,16.10
2017-11-23T12:21:08.904Z,16.11
2017-11-23T12:22:08.899Z,16.22
2017-11-23T12:23:08.898Z,16.25
2017-11-23T12:24:08.891Z,16.37
2017-11-23T12:25:08.890Z,16.30
2017-11-23T12:26:08.892Z,16.34
2017-11-23T12:27:08.884Z,16.30
2017-11-23T12:28:08.887Z,16.30
2017-11-23T12:29:08.884Z,16.41
2017-11-23T12:30:08.883Z,16.37
2017-11-23T12:31:08.880Z,16.40
2017-11-23T12:32:08.878Z,16.37
2017-11-23T12:33:08.879Z,16.40
2017-11-23T12:34:08.877Z,16.54
2017-11-23T12:35:08.872Z,16.60
2017-11-23T12:36:08.868Z,16.63
2017-11-23T12:37:08.862Z,16.55
2017-11-23T12:38:08.861Z,16.57
2017-11-23T12:39:08.860Z,16.52
2017-11-23T12:40:08.857Z,16.51
2017-11-23T12:41:08.854Z,16.59
2017-11-23T12:42:08.855Z,16.57
2017-11-23T12:43:08.852Z,16.66
2017-11-23T12:44:08.854Z,16.55
2017-11-23T12:45:08.852Z,16.41
2017-11-23T12:46:08.850Z,16.52
2017-11-23T12:47:08.855Z,16.52
2017-11-23T12:48:08.847Z,16.52
2017-11-23T12:49:08.845Z,16.52
2017-11-23T12:50:08.843Z,16.55
2017-11-23T12:51:08.847Z,16.63
2017-11-23T12:52:08.836Z,16.63